Time;durP1;ratioP1;P1;durP2;ratioP2;P2;SDS_P1;SDS_P2;PMS_P1;PMS_P2;Temp;Humidity;BMP_temperature;BMP_pressure;BME280_temperature;BME280_humidity;BME280_pressure;Samples;Min_cycle;Max_cycle;Signal;HPM_P1;HPM_P2
2022/01/03 00:00:31;;;;;;;;;1.00;1.00;;;;;;;;5257991;28;8784;-72
2022/01/03 00:03:05;;;;;;;;;1.00;1.00;;;;;;;;5238748;28;8837;-73
2022/01/03 00:05:36;;;;;;;;;4.00;4.00;;;;;;;;5254715;28;8784;-73
2022/01/03 00:08:08;;;;;;;;;5.20;5.20;;;;;;;;5272194;28;8903;-73
2022/01/03 00:10:39;;;;;;;;;6.80;6.80;;;;;;;;5238339;28;8768;-71
2022/01/03 00:13:29;;;;;;;;;12.80;12.80;;;;;;;;5257629;28;8764;-73
2022/01/03 00:16:00;;;;;;;;;13.80;13.00;;;;;;;;5238194;28;8788;-74
2022/01/03 00:18:32;;;;;;;;;13.00;12.60;;;;;;;;5238434;28;9491;-74
2022/01/03 00:21:06;;;;;;;;;19.80;19.80;;;;;;;;5271470;28;8764;-73
2022/01/03 00:23:38;;;;;;;;;3.00;3.00;;;;;;;;5237794;28;8780;-74
2022/01/03 00:26:30;;;;;;;;;0.60;0.60;;;;;;;;5257180;28;8880;-74
2022/01/03 00:29:04;;;;;;;;;5.20;5.20;;;;;;;;5237968;28;8843;-73
2022/01/03 00:31:37;;;;;;;;;1.00;1.00;;;;;;;;5236997;28;8776;-73
2022/01/03 00:34:10;;;;;;;;;5.20;5.20;;;;;;;;5237684;28;8769;-72
2022/01/03 00:36:44;;;;;;;;;5.20;5.20;;;;;;;;5271164;28;8784;-72
2022/01/03 00:39:15;;;;;;;;;6.00;6.00;;;;;;;;5238040;28;8777;-72
2022/01/03 00:41:48;;;;;;;;;1.40;1.40;;;;;;;;5270969;28;8773;-72
2022/01/03 00:44:22;;;;;;;;;5.60;5.60;;;;;;;;5254179;28;8834;-72
2022/01/03 00:46:53;;;;;;;;;3.60;3.60;;;;;;;;5254488;28;8815;-71
2022/01/03 00:49:25;;;;;;;;;3.20;3.20;;;;;;;;5237909;28;8812;-71
2022/01/03 00:51:56;;;;;;;;;5.20;5.20;;;;;;;;5238040;28;8784;-73
2022/01/03 00:54:28;;;;;;;;;6.20;6.20;;;;;;;;5254254;28;8788;-73
2022/01/03 00:57:03;;;;;;;;;4.20;4.20;;;;;;;;5254464;28;8845;-72
2022/01/03 00:59:41;;;;;;;;;19.40;17.40;;;;;;;;5237737;28;8796;-72
2022/01/03 01:02:14;;;;;;;;;22.60;19.20;;;;;;;;5237136;28;8789;-72
2022/01/03 01:04:46;;;;;;;;;28.60;26.80;;;;;;;;5253717;28;9502;-72
2022/01/03 01:07:18;;;;;;;;;26.60;26.20;;;;;;;;5237005;28;8772;-70
2022/01/03 01:09:54;;;;;;;;;16.80;15.40;;;;;;;;5237278;28;8878;-69
2022/01/03 01:12:25;;;;;;;;;8.20;8.20;;;;;;;;5253700;28;8857;-69
2022/01/03 01:14:57;;;;;;;;;7.00;7.00;;;;;;;;5237997;28;9472;-69
2022/01/03 01:17:28;;;;;;;;;7.80;7.00;;;;;;;;5237279;28;8841;-69
2022/01/03 01:20:00;;;;;;;;;7.00;6.00;;;;;;;;5270306;28;8784;-70
2022/01/03 01:22:31;;;;;;;;;8.20;8.20;;;;;;;;5254395;28;9002;-71
2022/01/03 01:27:50;;;;;;;;;7.00;7.00;;;;;;;;5254318;28;8736;-70
2022/01/03 01:30:28;;;;;;;;;10.60;10.60;;;;;;;;5237782;28;8769;-71
2022/01/03 01:33:02;;;;;;;;;6.60;6.60;;;;;;;;5253673;28;8764;-70
2022/01/03 01:35:50;;;;;;;;;3.20;3.20;;;;;;;;5253912;28;8845;-72
2022/01/03 01:38:29;;;;;;;;;6.40;6.40;;;;;;;;5254041;28;8804;-71
2022/01/03 01:41:02;;;;;;;;;3.00;3.00;;;;;;;;5254006;28;8773;-71
2022/01/03 01:43:40;;;;;;;;;5.60;5.60;;;;;;;;5236766;28;8852;-72
2022/01/03 01:46:14;;;;;;;;;4.40;4.00;;;;;;;;5253104;28;8926;-73
2022/01/03 01:49:05;;;;;;;;;0.60;0.20;;;;;;;;5270618;28;8772;-72
2022/01/03 01:51:37;;;;;;;;;7.00;7.00;;;;;;;;5270003;28;8756;-73
2022/01/03 01:54:13;;;;;;;;;13.00;13.00;;;;;;;;5254073;28;8891;-72
2022/01/03 01:56:54;;;;;;;;;10.40;10.40;;;;;;;;5253913;28;8805;-72
2022/01/03 01:59:35;;;;;;;;;6.20;6.20;;;;;;;;5254245;28;8806;-71
2022/01/03 02:02:08;;;;;;;;;33.80;31.40;;;;;;;;5253659;28;8775;-72
2022/01/03 02:04:46;;;;;;;;;46.75;38.25;;;;;;;;5269873;28;8798;-74
2022/01/03 02:07:38;;;;;;;;;25.25;24.00;;;;;;;;5237327;28;8783;-74
2022/01/03 02:10:15;;;;;;;;;25.80;24.20;;;;;;;;5253754;28;8763;-74
2022/01/03 02:12:49;;;;;;;;;22.80;22.80;;;;;;;;5269991;28;8893;-73
2022/01/03 02:15:27;;;;;;;;;15.80;15.80;;;;;;;;5270210;28;8786;-73
2022/01/03 02:17:59;;;;;;;;;12.80;12.80;;;;;;;;5252974;28;8783;-73
2022/01/03 02:20:32;;;;;;;;;10.00;10.00;;;;;;;;5253363;28;8775;-72
2022/01/03 02:23:09;;;;;;;;;23.80;23.80;;;;;;;;5237451;28;8782;-73
2022/01/03 02:25:44;;;;;;;;;6.40;6.00;;;;;;;;5253546;28;8815;-73
2022/01/03 02:28:20;;;;;;;;;9.20;9.00;;;;;;;;5253402;28;8929;-73
2022/01/03 02:30:53;;;;;;;;;11.40;11.40;;;;;;;;5270298;28;8867;-74
2022/01/03 02:33:25;;;;;;;;;0.00;0.00;;;;;;;;5252901;28;8771;-73
2022/01/03 02:35:58;;;;;;;;;0.80;0.80;;;;;;;;5269829;28;8898;-73
2022/01/03 02:38:30;;;;;;;;;20.00;20.00;;;;;;;;5269655;28;8927;-73
2022/01/03 02:41:02;;;;;;;;;21.00;20.20;;;;;;;;5252780;28;8811;-73
2022/01/03 02:43:34;;;;;;;;;12.80;12.00;;;;;;;;5252633;28;8852;-73
2022/01/03 02:46:07;;;;;;;;;1.60;1.60;;;;;;;;5252677;28;8933;-73
2022/01/03 02:48:38;;;;;;;;;16.60;16.60;;;;;;;;5253022;28;8791;-75
2022/01/03 02:51:28;;;;;;;;;18.40;17.80;;;;;;;;5269185;28;8783;-73
2022/01/03 02:54:00;;;;;;;;;19.80;18.60;;;;;;;;5252688;28;8775;-72
2022/01/03 02:56:35;;;;;;;;;14.20;14.20;;;;;;;;5255680;28;8833;-72
2022/01/03 02:59:13;;;;;;;;;7.40;7.40;;;;;;;;5241126;28;9466;-74
2022/01/03 03:02:04;;;;;;;;;7.40;7.40;;;;;;;;5259004;28;8795;-71
2022/01/03 03:04:55;;;;;;;;;6.00;6.00;;;;;;;;5256062;28;8783;-71
2022/01/03 03:07:28;;;;;;;;;8.00;8.00;;;;;;;;5241022;28;8789;-71
2022/01/03 03:10:00;;;;;;;;;12.00;12.00;;;;;;;;5256726;28;8763;-71
2022/01/03 03:12:50;;;;;;;;;9.00;7.00;;;;;;;;5259265;28;8775;-72
2022/01/03 03:15:22;;;;;;;;;7.00;7.00;;;;;;;;5239775;28;8791;-72
2022/01/03 03:17:53;;;;;;;;;8.60;8.60;;;;;;;;5255890;28;8775;-74
2022/01/03 03:20:26;;;;;;;;;13.80;13.80;;;;;;;;5255741;28;8781;-73
2022/01/03 03:22:58;;;;;;;;;10.60;10.40;;;;;;;;5240020;28;8861;-72
2022/01/03 03:25:34;;;;;;;;;11.20;11.20;;;;;;;;5239228;28;9620;-72
2022/01/03 03:28:25;;;;;;;;;11.00;11.00;;;;;;;;5275873;28;8861;-73
2022/01/03 03:30:59;;;;;;;;;6.20;6.20;;;;;;;;5273425;28;8786;-71
2022/01/03 03:33:43;;;;;;;;;15.40;15.40;;;;;;;;5258226;28;9462;-69
2022/01/03 03:36:15;;;;;;;;;1.80;1.00;;;;;;;;5256358;28;8786;-70
2022/01/03 03:38:47;;;;;;;;;6.60;6.60;;;;;;;;5239218;28;9470;-70
2022/01/03 03:41:22;;;;;;;;;8.20;8.20;;;;;;;;5239806;28;8842;-70
2022/01/03 03:43:57;;;;;;;;;21.40;18.40;;;;;;;;5255881;28;8945;-70
2022/01/03 03:46:29;;;;;;;;;14.20;14.20;;;;;;;;5255610;28;8929;-70
2022/01/03 03:49:00;;;;;;;;;15.20;15.00;;;;;;;;5272784;28;9510;-70
2022/01/03 03:51:38;;;;;;;;;21.60;21.00;;;;;;;;5255222;28;8806;-69
2022/01/03 03:54:09;;;;;;;;;15.00;9.80;;;;;;;;5239193;28;8802;-70
2022/01/03 03:56:40;;;;;;;;;12.00;12.00;;;;;;;;5255664;28;8799;-71
2022/01/03 03:59:13;;;;;;;;;16.00;14.20;;;;;;;;5272731;28;8803;-71
2022/01/03 04:01:45;;;;;;;;;46.75;45.25;;;;;;;;5256129;28;8787;-71
2022/01/03 04:04:16;;;;;;;;;41.50;35.75;;;;;;;;5239133;28;8794;-72
2022/01/03 04:06:48;;;;;;;;;9.00;7.40;;;;;;;;5238763;28;8807;-72
2022/01/03 04:09:20;;;;;;;;;22.40;21.60;;;;;;;;5239022;28;8793;-72
2022/01/03 04:11:52;;;;;;;;;21.00;21.00;;;;;;;;5272402;28;8763;-71
2022/01/03 04:14:24;;;;;;;;;15.60;15.60;;;;;;;;5255689;28;8851;-71
2022/01/03 04:16:55;;;;;;;;;10.00;10.00;;;;;;;;5239018;28;8782;-71
2022/01/03 04:19:27;;;;;;;;;9.80;9.80;;;;;;;;5272363;28;8771;-71
2022/01/03 04:21:58;;;;;;;;;7.00;7.00;;;;;;;;5255153;28;8771;-71
2022/01/03 04:24:31;;;;;;;;;10.20;9.20;;;;;;;;5255961;28;8800;-72
2022/01/03 04:27:03;;;;;;;;;7.40;7.40;;;;;;;;5272066;28;8845;-73
2022/01/03 04:29:34;;;;;;;;;11.60;10.40;;;;;;;;5255323;28;8918;-72
2022/01/03 04:32:05;;;;;;;;;12.00;12.00;;;;;;;;5254720;28;8767;-73
2022/01/03 04:34:37;;;;;;;;;6.20;6.20;;;;;;;;5271278;28;8807;-72
2022/01/03 04:37:09;;;;;;;;;10.80;10.80;;;;;;;;5254396;28;8779;-72
2022/01/03 04:39:40;;;;;;;;;7.80;7.00;;;;;;;;5254366;28;8783;-72
2022/01/03 04:42:13;;;;;;;;;11.60;11.60;;;;;;;;5238247;28;8803;-71
2022/01/03 04:44:45;;;;;;;;;17.40;16.80;;;;;;;;5254458;28;8829;-70
2022/01/03 04:47:18;;;;;;;;;7.00;7.00;;;;;;;;5271037;28;8925;-70
2022/01/03 04:49:49;;;;;;;;;14.20;14.20;;;;;;;;5254236;28;8795;-70
2022/01/03 04:52:22;;;;;;;;;15.60;15.60;;;;;;;;5255003;28;8783;-71
2022/01/03 04:54:53;;;;;;;;;16.60;16.60;;;;;;;;5237242;28;8814;-71
2022/01/03 04:57:25;;;;;;;;;16.00;15.60;;;;;;;;5253904;28;8875;-71
2022/01/03 04:59:57;;;;;;;;;12.00;12.00;;;;;;;;5271006;28;8787;-73
2022/01/03 05:02:28;;;;;;;;;17.40;16.40;;;;;;;;5254023;28;8783;-72
2022/01/03 05:04:59;;;;;;;;;0.20;0.20;;;;;;;;5237052;28;9560;-70
2022/01/03 05:07:31;;;;;;;;;2.20;1.00;;;;;;;;5254138;28;8854;-70
2022/01/03 05:10:02;;;;;;;;;15.25;14.50;;;;;;;;5288714;28;8791;-70
2022/01/03 05:12:33;;;;;;;;;14.80;14.00;;;;;;;;5253699;28;10510;-70
2022/01/03 05:15:05;;;;;;;;;41.20;37.40;;;;;;;;5253761;28;9466;-70
2022/01/03 05:17:36;;;;;;;;;26.00;24.20;;;;;;;;5270388;28;8787;-71
2022/01/03 05:20:08;;;;;;;;;20.20;17.20;;;;;;;;5237646;28;8775;-70
2022/01/03 05:22:40;;;;;;;;;26.80;25.20;;;;;;;;5253811;28;8783;-70
2022/01/03 05:25:13;;;;;;;;;5.20;5.20;;;;;;;;5253552;28;8842;-67
2022/01/03 05:32:09;;;;;;;;;13.80;12.80;;;;;;;;5288477;28;8736;-71
2022/01/03 05:34:41;;;;;;;;;30.80;28.20;;;;;;;;5270458;28;8794;-71
2022/01/03 05:37:12;;;;;;;;;16.00;15.40;;;;;;;;5270326;28;8802;-71
2022/01/03 05:40:03;;;;;;;;;17.60;17.60;;;;;;;;5270161;28;8779;-71
2022/01/03 05:42:35;;;;;;;;;7.20;7.20;;;;;;;;5270097;28;8803;-72
2022/01/03 05:45:06;;;;;;;;;10.80;10.80;;;;;;;;5270545;28;8819;-72
2022/01/03 05:47:56;;;;;;;;;11.20;10.40;;;;;;;;5256132;28;9498;-73
2022/01/03 05:50:28;;;;;;;;;4.00;4.00;;;;;;;;5253835;28;8790;-72
2022/01/03 05:52:59;;;;;;;;;17.20;16.60;;;;;;;;5270329;28;8890;-72
2022/01/03 05:55:30;;;;;;;;;14.60;14.60;;;;;;;;5288167;28;8814;-71
2022/01/03 05:58:02;;;;;;;;;15.40;15.40;;;;;;;;5253234;28;8783;-72
2022/01/03 06:00:37;;;;;;;;;9.80;9.60;;;;;;;;5253757;28;8806;-72
2022/01/03 06:03:29;;;;;;;;;17.80;17.80;;;;;;;;5255762;28;8775;-71
2022/01/03 06:08:31;;;;;;;;;12.80;12.80;;;;;;;;5253697;28;8767;-71
2022/01/03 06:11:03;;;;;;;;;11.40;11.20;;;;;;;;5287887;28;8811;-71
2022/01/03 06:13:37;;;;;;;;;6.00;6.00;;;;;;;;5253331;28;8790;-70
2022/01/03 06:16:09;;;;;;;;;10.20;10.20;;;;;;;;5253146;28;8917;-72
2022/01/03 06:18:43;;;;;;;;;9.80;8.80;;;;;;;;5253377;28;8875;-72
2022/01/03 06:21:14;;;;;;;;;13.80;13.80;;;;;;;;5270336;28;8795;-72
2022/01/03 06:23:48;;;;;;;;;28.40;28.00;;;;;;;;5254273;28;8780;-73
2022/01/03 06:26:41;;;;;;;;;18.00;15.80;;;;;;;;5269773;28;8946;-73
2022/01/03 06:29:14;;;;;;;;;25.60;22.00;;;;;;;;5269793;28;8819;-75
2022/01/03 06:31:47;;;;;;;;;18.20;18.00;;;;;;;;5240610;28;8771;-73
2022/01/03 06:34:19;;;;;;;;;21.40;19.60;;;;;;;;5240822;28;8767;-74
2022/01/03 06:36:51;;;;;;;;;27.60;25.40;;;;;;;;5257938;28;8783;-74
2022/01/03 06:39:22;;;;;;;;;32.25;30.00;;;;;;;;5240750;28;8779;-71
2022/01/03 06:41:53;;;;;;;;;22.00;21.00;;;;;;;;5240126;28;11494;-73
2022/01/03 06:44:25;;;;;;;;;6.20;5.20;;;;;;;;5273752;28;8801;-75
2022/01/03 06:46:57;;;;;;;;;7.00;7.00;;;;;;;;5256893;28;8814;-74
2022/01/03 06:49:28;;;;;;;;;12.80;12.80;;;;;;;;5256565;28;9478;-70
2022/01/03 06:51:59;;;;;;;;;20.25;19.25;;;;;;;;5273692;28;8803;-71
2022/01/03 06:54:32;;;;;;;;;19.00;18.50;;;;;;;;5255944;28;8837;-72
2022/01/03 06:57:05;;;;;;;;;35.20;28.60;;;;;;;;5240665;28;8946;-71
2022/01/03 06:59:38;;;;;;;;;24.00;23.60;;;;;;;;5273550;28;8794;-71
2022/01/03 07:02:10;;;;;;;;;25.00;24.00;;;;;;;;5256785;28;8803;-71
2022/01/03 07:04:41;;;;;;;;;17.20;16.00;;;;;;;;5273702;28;8778;-70
2022/01/03 07:07:13;;;;;;;;;15.50;15.50;;;;;;;;5256570;28;8822;-71
2022/01/03 07:09:43;;;;;;;;;15.80;15.80;;;;;;;;5256125;28;8905;-70
2022/01/03 07:12:16;;;;;;;;;13.00;13.00;;;;;;;;5256045;28;8914;-71
2022/01/03 07:20:46;;;;;;;;;16.40;16.40;;;;;;;;5256027;28;8889;-69
2022/01/03 07:23:18;;;;;;;;;12.80;12.80;;;;;;;;5240115;28;8779;-73
2022/01/03 07:25:49;;;;;;;;;13.00;13.00;;;;;;;;5256095;28;8815;-72
2022/01/03 07:28:21;;;;;;;;;15.80;15.80;;;;;;;;5238872;28;8859;-72
2022/01/03 07:30:52;;;;;;;;;14.60;14.60;;;;;;;;5239430;28;8851;-73
2022/01/03 07:33:23;;;;;;;;;20.50;19.50;;;;;;;;5255775;28;8795;-71
2022/01/03 07:35:54;;;;;;;;;16.25;16.25;;;;;;;;5272100;28;11468;-72
2022/01/03 07:38:25;;;;;;;;;11.50;11.50;;;;;;;;5255174;28;11480;-71
2022/01/03 07:40:57;;;;;;;;;15.50;15.50;;;;;;;;5272045;28;11462;-72
2022/01/03 07:43:27;;;;;;;;;12.40;12.00;;;;;;;;5255788;28;11545;-72
2022/01/03 07:45:58;;;;;;;;;18.00;17.50;;;;;;;;5255582;28;8807;-71
2022/01/03 07:48:30;;;;;;;;;18.00;17.00;;;;;;;;5239212;28;8937;-71
2022/01/03 07:51:01;;;;;;;;;25.60;24.60;;;;;;;;5239251;28;8860;-73
2022/01/03 07:53:32;;;;;;;;;27.60;27.00;;;;;;;;5255827;28;8813;-73
2022/01/03 07:56:05;;;;;;;;;11.00;11.00;;;;;;;;5239408;28;9566;-72
2022/01/03 07:58:36;;;;;;;;;14.60;14.60;;;;;;;;5272468;28;11587;-73
2022/01/03 08:01:08;;;;;;;;;14.40;14.20;;;;;;;;5255022;28;8795;-71
2022/01/03 08:03:57;;;;;;;;;18.60;18.20;;;;;;;;5290655;28;8779;-73
2022/01/03 08:06:29;;;;;;;;;12.00;12.00;;;;;;;;5271987;28;8818;-72
2022/01/03 08:09:00;;;;;;;;;5.20;5.20;;;;;;;;5290120;28;8787;-72
2022/01/03 08:11:31;;;;;;;;;20.20;19.20;;;;;;;;5271909;28;9474;-72
2022/01/03 08:14:02;;;;;;;;;8.75;7.50;;;;;;;;5272071;28;8782;-72
2022/01/03 08:16:33;;;;;;;;;9.00;9.00;;;;;;;;5272012;28;8814;-72
2022/01/03 08:19:04;;;;;;;;;12.75;12.75;;;;;;;;5254783;28;8809;-72
2022/01/03 08:21:34;;;;;;;;;12.00;12.00;;;;;;;;5254676;28;8787;-72
2022/01/03 08:24:05;;;;;;;;;12.25;12.25;;;;;;;;5271467;28;8910;-72
2022/01/03 08:26:38;;;;;;;;;6.75;6.75;;;;;;;;5289534;28;8856;-72
2022/01/03 08:29:09;;;;;;;;;8.20;8.20;;;;;;;;5271178;28;8795;-72
2022/01/03 08:31:40;;;;;;;;;7.00;7.00;;;;;;;;5255230;28;9403;-71
2022/01/03 08:34:11;;;;;;;;;8.50;8.50;;;;;;;;5255410;28;8898;-72
2022/01/03 08:36:41;;;;;;;;;12.00;10.00;;;;;;;;5254867;28;8817;-72
2022/01/03 08:39:12;;;;;;;;;15.25;15.25;;;;;;;;5289025;28;11479;-71
2022/01/03 08:41:43;;;;;;;;;19.75;19.75;;;;;;;;5255145;28;8822;-72
2022/01/03 08:44:15;;;;;;;;;10.00;8.60;;;;;;;;5254382;28;8877;-73
2022/01/03 08:46:50;;;;;;;;;23.80;23.20;;;;;;;;5272130;28;8794;-72
2022/01/03 08:49:21;;;;;;;;;12.80;12.80;;;;;;;;5254289;28;8783;-72
2022/01/03 08:51:52;;;;;;;;;11.00;11.00;;;;;;;;5271188;28;8771;-72
2022/01/03 08:54:23;;;;;;;;;13.00;12.25;;;;;;;;5253832;28;8802;-73
2022/01/03 08:56:53;;;;;;;;;17.50;16.75;;;;;;;;5270535;28;8916;-72
2022/01/03 08:59:25;;;;;;;;;10.50;10.50;;;;;;;;5289336;28;8779;-71
2022/01/03 09:01:56;;;;;;;;;20.60;19.40;;;;;;;;5237543;28;8817;-72
2022/01/03 09:04:28;;;;;;;;;17.00;17.00;;;;;;;;5270743;28;8779;-75
2022/01/03 09:06:59;;;;;;;;;13.60;13.60;;;;;;;;5270555;28;8879;-72
2022/01/03 09:09:32;;;;;;;;;13.00;13.00;;;;;;;;5236834;28;8791;-73
2022/01/03 09:12:04;;;;;;;;;14.80;14.80;;;;;;;;5270938;28;9466;-72
2022/01/03 09:14:35;;;;;;;;;12.20;11.40;;;;;;;;5270507;28;8799;-73
2022/01/03 09:17:06;;;;;;;;;12.20;12.20;;;;;;;;5253782;28;8864;-71
2022/01/03 09:29:39;;;;;;;;;27.40;27.40;;;;;;;;5253733;28;9490;-72
2022/01/03 09:32:10;;;;;;;;;14.40;14.40;;;;;;;;5270635;28;9498;-71
2022/01/03 09:34:41;;;;;;;;;12.75;12.00;;;;;;;;5253564;28;8787;-70
2022/01/03 09:37:12;;;;;;;;;15.25;15.25;;;;;;;;5288356;28;8784;-71
2022/01/03 09:40:03;;;;;;;;;10.60;10.60;;;;;;;;5273884;28;9478;-71
2022/01/03 09:42:34;;;;;;;;;7.00;6.20;;;;;;;;5253133;28;8818;-70
2022/01/03 09:45:07;;;;;;;;;13.40;13.40;;;;;;;;5253145;28;8810;-70
2022/01/03 09:47:40;;;;;;;;;12.00;12.00;;;;;;;;5236518;28;8791;-73
2022/01/03 09:50:13;;;;;;;;;6.80;6.80;;;;;;;;5236804;28;8810;-72
2022/01/03 09:52:46;;;;;;;;;12.00;12.00;;;;;;;;5236463;28;8810;-72
2022/01/03 09:55:35;;;;;;;;;0.00;0.00;;;;;;;;5273076;28;8807;-73
2022/01/03 10:02:29;;;;;;;;;7.40;7.40;;;;;;;;5288054;28;8700;-72
2022/01/03 10:05:00;;;;;;;;;12.00;12.00;;;;;;;;5273236;28;8778;-71
2022/01/03 10:07:50;;;;;;;;;10.00;9.40;;;;;;;;5274850;28;8775;-70
2022/01/03 10:10:21;;;;;;;;;16.20;16.20;;;;;;;;5274584;28;8913;-71
2022/01/03 10:12:51;;;;;;;;;11.00;11.00;;;;;;;;5274415;28;9616;-70
2022/01/03 10:15:23;;;;;;;;;8.25;8.25;;;;;;;;5274949;28;8913;-70
2022/01/03 10:18:19;;;;;;;;;9.00;9.00;;;;;;;;5277081;28;8775;-72
2022/01/03 10:20:50;;;;;;;;;9.80;9.80;;;;;;;;5274510;28;8788;-71
2022/01/03 10:23:21;;;;;;;;;14.40;13.20;;;;;;;;5257128;28;8775;-72
2022/01/03 10:25:52;;;;;;;;;14.50;14.50;;;;;;;;5274072;28;8818;-71
2022/01/03 10:28:23;;;;;;;;;16.50;12.25;;;;;;;;5274080;28;8776;-72
2022/01/03 10:31:14;;;;;;;;;20.40;20.20;;;;;;;;5274366;28;8880;-72
2022/01/03 10:33:45;;;;;;;;;19.40;19.40;;;;;;;;5273977;28;8783;-69
2022/01/03 10:36:30;;;;;;;;;6.00;6.00;;;;;;;;5240342;28;8795;-69
2022/01/03 10:39:32;;;;;;;;;33.20;32.00;;;;;;;;5240649;28;8940;-72
2022/01/03 10:46:28;;;;;;;;;16.40;16.40;;;;;;;;5291548;28;8786;-73
2022/01/03 10:49:20;;;;;;;;;19.20;18.00;;;;;;;;5259021;28;8831;-71
2022/01/03 10:51:51;;;;;;;;;17.20;15.80;;;;;;;;5273431;28;8759;-73
2022/01/03 11:03:40;;;;;;;;;9.40;7.80;;;;;;;;5270268;28;8735;-70
2022/01/03 11:12:18;;;;;;;;;18.60;18.60;;;;;;;;5252552;28;8795;-70
2022/01/03 11:14:49;;;;;;;;;10.40;10.40;;;;;;;;5220923;28;8786;-70
2022/01/03 11:17:22;;;;;;;;;21.00;20.75;;;;;;;;5236703;28;8794;-71
2022/01/03 11:19:57;;;;;;;;;13.80;13.80;;;;;;;;5236474;28;8805;-71
2022/01/03 11:22:43;;;;;;;;;14.40;13.40;;;;;;;;5252210;28;9545;-71
2022/01/03 11:25:14;;;;;;;;;9.40;9.40;;;;;;;;5218742;28;8771;-70
2022/01/03 11:27:45;;;;;;;;;16.00;16.00;;;;;;;;5251761;28;8813;-71
2022/01/03 11:30:17;;;;;;;;;15.25;15.25;;;;;;;;5269722;28;9126;-71
2022/01/03 11:32:49;;;;;;;;;12.60;9.80;;;;;;;;5235086;28;11448;-70
2022/01/03 11:35:20;;;;;;;;;17.20;17.20;;;;;;;;5234912;28;8881;-71
2022/01/03 11:37:52;;;;;;;;;25.20;25.20;;;;;;;;5234754;28;8897;-72
2022/01/03 11:40:22;;;;;;;;;31.20;30.40;;;;;;;;5251146;28;8786;-72
2022/01/03 11:42:54;;;;;;;;;13.40;13.00;;;;;;;;5234834;28;8921;-72
2022/01/03 11:45:25;;;;;;;;;27.60;25.00;;;;;;;;5251522;28;8810;-72
2022/01/03 11:47:57;;;;;;;;;24.50;23.25;;;;;;;;5248860;28;8788;-72
2022/01/03 11:50:49;;;;;;;;;15.20;15.20;;;;;;;;5251383;28;10823;-71
2022/01/03 11:53:20;;;;;;;;;17.00;16.20;;;;;;;;5250952;28;8774;-72
2022/01/03 11:55:55;;;;;;;;;17.50;17.50;;;;;;;;5217906;28;8782;-71
2022/01/03 12:04:14;;;;;;;;;25.60;25.40;;;;;;;;5290208;28;8791;-72
2022/01/03 12:06:46;;;;;;;;;22.80;22.20;;;;;;;;5238093;28;8802;-70
2022/01/03 12:09:18;;;;;;;;;22.80;22.80;;;;;;;;5237875;28;8918;-71
2022/01/03 12:11:53;;;;;;;;;21.40;18.00;;;;;;;;5238483;28;8791;-71
2022/01/03 12:14:37;;;;;;;;;15.00;13.80;;;;;;;;5254514;28;8833;-71
2022/01/03 12:17:08;;;;;;;;;26.80;26.00;;;;;;;;5254342;28;8873;-70
2022/01/03 12:19:45;;;;;;;;;21.80;21.80;;;;;;;;5271667;28;8805;-71
2022/01/03 12:22:17;;;;;;;;;8.40;8.40;;;;;;;;5238414;28;8784;-71
2022/01/03 12:24:49;;;;;;;;;25.80;25.40;;;;;;;;5237824;28;8771;-71
2022/01/03 12:27:21;;;;;;;;;26.20;26.20;;;;;;;;5253792;28;8815;-71
2022/01/03 12:29:55;;;;;;;;;32.80;31.20;;;;;;;;5254458;28;8799;-70
2022/01/03 12:32:26;;;;;;;;;26.60;26.20;;;;;;;;5254430;28;9478;-71
2022/01/03 12:35:16;;;;;;;;;33.25;31.50;;;;;;;;5271336;28;8818;-70
2022/01/03 12:38:06;;;;;;;;;30.60;30.40;;;;;;;;5274595;28;8818;-71
2022/01/03 12:40:42;;;;;;;;;30.50;30.50;;;;;;;;5271049;28;8756;-73
2022/01/03 12:43:33;;;;;;;;;29.60;27.80;;;;;;;;5274356;28;8822;-72
2022/01/03 12:46:13;;;;;;;;;23.80;23.20;;;;;;;;5254067;28;8960;-72
2022/01/03 12:48:44;;;;;;;;;17.80;17.80;;;;;;;;5271280;28;8814;-72
2022/01/03 12:51:16;;;;;;;;;45.60;40.20;;;;;;;;5270849;28;8783;-69
2022/01/03 12:53:49;;;;;;;;;32.00;25.80;;;;;;;;5271419;28;8787;-69
2022/01/03 12:56:26;;;;;;;;;26.60;24.60;;;;;;;;5254480;28;8821;-70
2022/01/03 12:58:59;;;;;;;;;26.40;26.40;;;;;;;;5270470;28;8803;-69
2022/01/03 13:01:30;;;;;;;;;33.00;32.50;;;;;;;;5270796;28;8787;-70
2022/01/03 13:04:21;;;;;;;;;12.00;10.60;;;;;;;;5289250;28;8767;-71
2022/01/03 13:06:59;;;;;;;;;25.80;24.40;;;;;;;;5289441;28;8841;-70
2022/01/03 13:09:30;;;;;;;;;20.20;19.40;;;;;;;;5254456;28;8783;-71
2022/01/03 13:12:05;;;;;;;;;21.60;21.60;;;;;;;;5271029;28;8855;-71
2022/01/03 13:14:36;;;;;;;;;22.40;21.20;;;;;;;;5271124;28;8825;-70
2022/01/03 13:17:07;;;;;;;;;31.50;29.00;;;;;;;;5253801;28;8787;-71
2022/01/03 13:19:38;;;;;;;;;26.67;25.33;;;;;;;;5288523;28;8817;-70
2022/01/03 13:22:10;;;;;;;;;41.67;40.67;;;;;;;;5270784;28;11518;-70
2022/01/03 13:24:44;;;;;;;;;18.00;17.40;;;;;;;;5253304;28;11519;-70
2022/01/03 13:27:16;;;;;;;;;28.20;27.60;;;;;;;;5288392;28;8810;-71
2022/01/03 13:29:51;;;;;;;;;24.40;22.80;;;;;;;;5253795;28;8791;-72
2022/01/03 13:32:26;;;;;;;;;28.20;28.20;;;;;;;;5271090;28;8785;-70
2022/01/03 13:35:15;;;;;;;;;43.25;39.00;;;;;;;;5256289;28;8794;-71
2022/01/03 13:38:17;;;;;;;;;26.80;26.80;;;;;;;;5270381;28;8818;-70
2022/01/03 13:40:48;;;;;;;;;48.75;46.00;;;;;;;;5253170;28;8848;-70
2022/01/03 13:43:21;;;;;;;;;45.33;44.00;;;;;;;;5270543;28;9454;-73
2022/01/03 13:51:13;;;;;;;;;43.50;40.50;;;;;;;;5270713;28;8767;-72
2022/01/03 13:53:51;;;;;;;;;48.75;42.50;;;;;;;;5270147;28;8786;-71
2022/01/03 13:56:22;;;;;;;;;65.50;54.00;;;;;;;;5236823;28;8783;-70
2022/01/03 13:58:53;;;;;;;;;34.25;31.00;;;;;;;;5252786;28;8835;-70
2022/01/03 14:01:24;;;;;;;;;54.33;48.33;;;;;;;;5270009;28;8787;-71
2022/01/03 14:04:14;;;;;;;;;51.75;44.50;;;;;;;;5270172;28;8779;-70
2022/01/03 14:06:45;;;;;;;;;54.50;46.25;;;;;;;;5270034;28;8835;-69
2022/01/03 14:09:17;;;;;;;;;53.75;45.25;;;;;;;;5288135;28;8771;-69
2022/01/03 14:11:48;;;;;;;;;43.75;41.25;;;;;;;;5287901;28;8755;-69
2022/01/03 14:14:20;;;;;;;;;50.00;47.33;;;;;;;;5269880;28;8791;-69
2022/01/03 14:16:51;;;;;;;;;47.25;35.50;;;;;;;;5287915;28;8795;-70
2022/01/03 14:19:25;;;;;;;;;41.75;41.00;;;;;;;;5252788;28;8767;-72
2022/01/03 14:22:07;;;;;;;;;41.25;37.50;;;;;;;;5270364;28;8783;-71
2022/01/03 14:24:58;;;;;;;;;44.75;41.50;;;;;;;;5253426;28;8937;-69
2022/01/03 14:27:48;;;;;;;;;60.00;50.75;;;;;;;;5287873;28;8988;-73
2022/01/03 14:30:29;;;;;;;;;66.50;57.25;;;;;;;;5253117;28;8779;-71
2022/01/03 14:33:03;;;;;;;;;92.33;70.00;;;;;;;;5236388;28;9521;-72
2022/01/03 14:35:36;;;;;;;;;93.33;74.33;;;;;;;;5252774;28;9020;-71
2022/01/03 14:38:28;;;;;;;;;85.25;63.50;;;;;;;;5273124;27;9418;-70
2022/01/03 14:40:59;;;;;;;;;72.50;58.75;;;;;;;;5273694;27;8775;-71
2022/01/03 14:43:29;;;;;;;;;77.67;60.00;;;;;;;;5308581;27;8768;-70
2022/01/03 14:46:05;;;;;;;;;34.00;30.00;;;;;;;;5290528;27;8787;-71
2022/01/03 14:48:36;;;;;;;;;31.80;31.20;;;;;;;;5257392;27;11591;-70
2022/01/03 14:51:08;;;;;;;;;18.00;18.00;;;;;;;;5291786;27;9576;-72
2022/01/03 14:53:39;;;;;;;;;16.80;16.20;;;;;;;;5260392;27;8768;-71
2022/01/03 14:56:25;;;;;;;;;10.40;10.00;;;;;;;;5277460;27;8794;-70
2022/01/03 14:59:16;;;;;;;;;24.20;22.40;;;;;;;;5258971;28;9491;-71
2022/01/03 15:01:49;;;;;;;;;32.50;31.00;;;;;;;;5239724;28;8922;-71
2022/01/03 15:04:21;;;;;;;;;46.50;38.50;;;;;;;;5291193;28;8772;-71
2022/01/03 15:06:52;;;;;;;;;39.40;33.80;;;;;;;;5239434;28;8837;-72
2022/01/03 15:09:23;;;;;;;;;15.25;13.00;;;;;;;;5273094;28;8776;-75
2022/01/03 15:12:12;;;;;;;;;23.00;21.80;;;;;;;;5273136;28;8768;-74
2022/01/03 15:14:43;;;;;;;;;9.25;9.25;;;;;;;;5239714;28;8833;-73
2022/01/03 15:17:14;;;;;;;;;11.75;11.75;;;;;;;;5273662;28;8795;-70
2022/01/03 15:20:04;;;;;;;;;14.00;13.00;;;;;;;;5275896;28;11505;-72
2022/01/03 15:22:35;;;;;;;;;13.80;13.80;;;;;;;;5272843;28;8784;-70
2022/01/03 15:25:06;;;;;;;;;15.80;15.80;;;;;;;;5273136;28;8761;-70
2022/01/03 15:27:37;;;;;;;;;16.50;16.50;;;;;;;;5272723;28;8831;-71
2022/01/03 15:30:09;;;;;;;;;15.00;15.00;;;;;;;;5273404;28;10322;-70
2022/01/03 15:32:40;;;;;;;;;9.00;9.00;;;;;;;;5240021;28;8788;-74
2022/01/03 15:35:11;;;;;;;;;7.00;7.00;;;;;;;;5272583;28;8787;-72
2022/01/03 15:37:42;;;;;;;;;11.50;11.50;;;;;;;;5238920;28;8785;-70
2022/01/03 15:40:13;;;;;;;;;12.25;11.00;;;;;;;;5272370;28;8772;-74
2022/01/03 15:42:43;;;;;;;;;12.40;12.00;;;;;;;;5255767;28;8784;-71
2022/01/03 15:45:14;;;;;;;;;7.75;7.75;;;;;;;;5290914;28;8816;-70
2022/01/03 15:47:45;;;;;;;;;12.50;11.00;;;;;;;;5290982;28;8784;-70
2022/01/03 15:50:16;;;;;;;;;5.50;5.50;;;;;;;;5291021;28;9536;-71
2022/01/03 15:52:47;;;;;;;;;13.00;12.25;;;;;;;;5272273;28;8769;-72
2022/01/03 15:55:18;;;;;;;;;13.50;13.50;;;;;;;;5272548;28;8788;-71
2022/01/03 15:57:49;;;;;;;;;12.50;12.50;;;;;;;;5279435;28;8802;-70
2022/01/03 16:00:20;;;;;;;;;18.80;18.20;;;;;;;;5256383;28;9560;-71
2022/01/03 16:02:51;;;;;;;;;6.25;6.25;;;;;;;;5256399;28;8774;-72
2022/01/03 16:05:22;;;;;;;;;16.00;16.00;;;;;;;;5289315;28;9484;-71
2022/01/03 16:07:53;;;;;;;;;16.80;16.80;;;;;;;;5255114;28;8778;-71
2022/01/03 16:10:28;;;;;;;;;18.00;15.75;;;;;;;;5290639;28;8797;-71
2022/01/03 16:12:59;;;;;;;;;9.20;9.20;;;;;;;;5272612;28;9554;-70
2022/01/03 16:15:29;;;;;;;;;10.50;10.50;;;;;;;;5289814;28;8797;-70
2022/01/03 16:18:00;;;;;;;;;3.25;1.00;;;;;;;;5289063;28;8773;-72